sensor_id;sensor_type;location;lat;lon;timestamp;temperature;humidity
4962;DHT22;2496;52.468;13.342;2023-11-22T00:01:20;1.80;99.90
4962;DHT22;2496;52.468;13.342;2023-11-22T00:03:47;1.90;99.90
4962;DHT22;2496;52.468;13.342;2023-11-22T00:06:17;1.90;99.90
4962;DHT22;2496;52.468;13.342;2023-11-22T00:08:46;1.90;99.90
4962;DHT22;2496;52.468;13.342;2023-11-22T00:11:13;1.90;99.90
4962;DHT22;2496;52.468;13.342;2023-11-22T00:13:41;1.90;99.90
4962;DHT22;2496;52.468;13.342;2023-11-22T00:16:08;1.90;99.90
4962;DHT22;2496;52.468;13.342;2023-11-22T00:18:36;1.90;99.90
4962;DHT22;2496;52.468;13.342;2023-11-22T00:21:04;1.90;99.90
4962;DHT22;2496;52.468;13.342;2023-11-22T00:23:31;1.90;99.90
4962;DHT22;2496;52.468;13.342;2023-11-22T00:25:58;1.90;99.90
4962;DHT22;2496;52.468;13.342;2023-11-22T00:28:25;1.90;99.90
4962;DHT22;2496;52.468;13.342;2023-11-22T00:30:53;1.90;99.90
4962;DHT22;2496;52.468;13.342;2023-11-22T00:33:20;1.90;99.90
4962;DHT22;2496;52.468;13.342;2023-11-22T00:35:47;1.90;99.90
4962;DHT22;2496;52.468;13.342;2023-11-22T00:38:15;1.90;99.90
4962;DHT22;2496;52.468;13.342;2023-11-22T00:40:43;1.90;99.90
4962;DHT22;2496;52.468;13.342;2023-11-22T00:43:10;1.90;99.90
4962;DHT22;2496;52.468;13.342;2023-11-22T00:45:37;2.00;99.90
4962;DHT22;2496;52.468;13.342;2023-11-22T00:48:05;1.90;99.90
4962;DHT22;2496;52.468;13.342;2023-11-22T00:50:33;1.90;99.90
4962;DHT22;2496;52.468;13.342;2023-11-22T00:53:00;1.90;99.90
4962;DHT22;2496;52.468;13.342;2023-11-22T00:55:27;2.00;99.90
4962;DHT22;2496;52.468;13.342;2023-11-22T00:57:54;1.90;99.90
4962;DHT22;2496;52.468;13.342;2023-11-22T01:00:22;1.90;99.90
4962;DHT22;2496;52.468;13.342;2023-11-22T01:02:49;1.90;99.90
4962;DHT22;2496;52.468;13.342;2023-11-22T01:05:17;1.90;99.90
4962;DHT22;2496;52.468;13.342;2023-11-22T01:07:44;1.80;99.90
4962;DHT22;2496;52.468;13.342;2023-11-22T01:10:11;1.80;99.90
4962;DHT22;2496;52.468;13.342;2023-11-22T01:12:38;1.90;99.90
4962;DHT22;2496;52.468;13.342;2023-11-22T01:15:06;1.90;99.90
4962;DHT22;2496;52.468;13.342;2023-11-22T01:17:33;2.00;99.90
4962;DHT22;2496;52.468;13.342;2023-11-22T01:20:00;1.90;99.90
4962;DHT22;2496;52.468;13.342;2023-11-22T01:22:30;1.90;99.90
4962;DHT22;2496;52.468;13.342;2023-11-22T01:24:57;1.90;99.90
4962;DHT22;2496;52.468;13.342;2023-11-22T01:27:24;1.90;99.90
4962;DHT22;2496;52.468;13.342;2023-11-22T01:29:51;1.80;99.90
4962;DHT22;2496;52.468;13.342;2023-11-22T01:32:19;1.70;99.90
4962;DHT22;2496;52.468;13.342;2023-11-22T01:34:46;1.60;99.90
4962;DHT22;2496;52.468;13.342;2023-11-22T01:37:13;1.60;99.90
4962;DHT22;2496;52.468;13.342;2023-11-22T01:39:42;1.60;99.90
4962;DHT22;2496;52.468;13.342;2023-11-22T01:42:09;1.60;99.90
4962;DHT22;2496;52.468;13.342;2023-11-22T01:44:36;1.50;99.90
4962;DHT22;2496;52.468;13.342;2023-11-22T01:47:05;1.50;99.90
4962;DHT22;2496;52.468;13.342;2023-11-22T01:49:32;1.40;99.90
4962;DHT22;2496;52.468;13.342;2023-11-22T01:51:59;1.30;99.90
4962;DHT22;2496;52.468;13.342;2023-11-22T01:54:27;1.30;99.90
4962;DHT22;2496;52.468;13.342;2023-11-22T01:56:56;1.20;99.90
4962;DHT22;2496;52.468;13.342;2023-11-22T01:59:24;1.20;99.90
4962;DHT22;2496;52.468;13.342;2023-11-22T02:01:52;1.20;99.90
4962;DHT22;2496;52.468;13.342;2023-11-22T02:04:19;1.20;99.90
4962;DHT22;2496;52.468;13.342;2023-11-22T02:06:46;1.20;99.90
4962;DHT22;2496;52.468;13.342;2023-11-22T02:09:14;1.20;99.90
4962;DHT22;2496;52.468;13.342;2023-11-22T02:11:41;1.10;99.90
4962;DHT22;2496;52.468;13.342;2023-11-22T02:14:12;1.10;99.90
4962;DHT22;2496;52.468;13.342;2023-11-22T02:16:39;1.00;99.90
4962;DHT22;2496;52.468;13.342;2023-11-22T02:19:07;1.00;99.90
4962;DHT22;2496;52.468;13.342;2023-11-22T02:21:34;0.90;99.90
4962;DHT22;2496;52.468;13.342;2023-11-22T02:24:02;0.90;99.90
4962;DHT22;2496;52.468;13.342;2023-11-22T02:26:29;0.90;99.90
4962;DHT22;2496;52.468;13.342;2023-11-22T02:28:56;0.90;99.90
4962;DHT22;2496;52.468;13.342;2023-11-22T02:31:24;0.70;99.90
4962;DHT22;2496;52.468;13.342;2023-11-22T02:33:53;0.70;99.90
4962;DHT22;2496;52.468;13.342;2023-11-22T02:36:20;0.70;99.90
4962;DHT22;2496;52.468;13.342;2023-11-22T02:38:48;0.70;99.90
4962;DHT22;2496;52.468;13.342;2023-11-22T02:41:17;0.80;99.90
4962;DHT22;2496;52.468;13.342;2023-11-22T02:43:44;0.80;99.90
4962;DHT22;2496;52.468;13.342;2023-11-22T02:46:12;0.80;99.90
4962;DHT22;2496;52.468;13.342;2023-11-22T02:48:39;0.80;99.90
4962;DHT22;2496;52.468;13.342;2023-11-22T02:51:06;0.80;99.90
4962;DHT22;2496;52.468;13.342;2023-11-22T02:53:33;0.80;99.90
4962;DHT22;2496;52.468;13.342;2023-11-22T02:56:00;0.80;99.90
4962;DHT22;2496;52.468;13.342;2023-11-22T02:58:29;0.70;99.90
4962;DHT22;2496;52.468;13.342;2023-11-22T03:00:57;0.60;99.90
4962;DHT22;2496;52.468;13.342;2023-11-22T03:03:24;0.60;99.90
4962;DHT22;2496;52.468;13.342;2023-11-22T03:05:51;0.70;99.90
4962;DHT22;2496;52.468;13.342;2023-11-22T03:08:18;0.80;99.90
4962;DHT22;2496;52.468;13.342;2023-11-22T03:10:45;0.80;99.90
4962;DHT22;2496;52.468;13.342;2023-11-22T03:13:12;0.60;99.90
4962;DHT22;2496;52.468;13.342;2023-11-22T03:15:40;0.70;99.90
4962;DHT22;2496;52.468;13.342;2023-11-22T03:18:08;0.60;99.90
4962;DHT22;2496;52.468;13.342;2023-11-22T03:20:36;0.60;99.90
4962;DHT22;2496;52.468;13.342;2023-11-22T03:23:04;0.70;99.90
4962;DHT22;2496;52.468;13.342;2023-11-22T03:25:31;0.70;99.90
4962;DHT22;2496;52.468;13.342;2023-11-22T03:27:58;0.70;99.90
4962;DHT22;2496;52.468;13.342;2023-11-22T03:30:25;0.70;99.90
4962;DHT22;2496;52.468;13.342;2023-11-22T03:32:53;0.60;99.90
4962;DHT22;2496;52.468;13.342;2023-11-22T03:35:21;0.60;99.90
4962;DHT22;2496;52.468;13.342;2023-11-22T03:37:48;0.50;99.90
4962;DHT22;2496;52.468;13.342;2023-11-22T03:40:15;0.50;99.90
4962;DHT22;2496;52.468;13.342;2023-11-22T03:42:42;0.50;99.90
4962;DHT22;2496;52.468;13.342;2023-11-22T03:45:09;0.50;99.90
4962;DHT22;2496;52.468;13.342;2023-11-22T03:47:38;0.60;99.90
4962;DHT22;2496;52.468;13.342;2023-11-22T03:50:07;0.70;99.90
4962;DHT22;2496;52.468;13.342;2023-11-22T03:52:37;0.70;99.90
4962;DHT22;2496;52.468;13.342;2023-11-22T03:55:08;0.70;99.90
4962;DHT22;2496;52.468;13.342;2023-11-22T03:57:35;0.60;99.90
4962;DHT22;2496;52.468;13.342;2023-11-22T04:00:05;0.50;99.90
4962;DHT22;2496;52.468;13.342;2023-11-22T04:02:38;0.50;99.90
4962;DHT22;2496;52.468;13.342;2023-11-22T04:05:08;0.30;99.90
4962;DHT22;2496;52.468;13.342;2023-11-22T04:07:37;0.30;99.90
4962;DHT22;2496;52.468;13.342;2023-11-22T04:10:05;0.40;99.90
4962;DHT22;2496;52.468;13.342;2023-11-22T04:12:34;0.40;99.90
4962;DHT22;2496;52.468;13.342;2023-11-22T04:15:08;0.40;99.90
4962;DHT22;2496;52.468;13.342;2023-11-22T04:17:36;0.30;99.90
4962;DHT22;2496;52.468;13.342;2023-11-22T04:20:09;0.30;99.90
4962;DHT22;2496;52.468;13.342;2023-11-22T04:22:40;0.30;99.90
4962;DHT22;2496;52.468;13.342;2023-11-22T04:25:08;0.40;99.90
4962;DHT22;2496;52.468;13.342;2023-11-22T04:27:39;0.50;99.90
4962;DHT22;2496;52.468;13.342;2023-11-22T04:30:07;0.40;99.90
4962;DHT22;2496;52.468;13.342;2023-11-22T04:32:45;0.40;99.90
4962;DHT22;2496;52.468;13.342;2023-11-22T04:35:15;0.30;99.90
4962;DHT22;2496;52.468;13.342;2023-11-22T04:37:43;0.40;99.90
4962;DHT22;2496;52.468;13.342;2023-11-22T04:40:12;0.40;99.90
4962;DHT22;2496;52.468;13.342;2023-11-22T04:42:44;0.30;99.90
4962;DHT22;2496;52.468;13.342;2023-11-22T04:45:15;0.20;99.90
4962;DHT22;2496;52.468;13.342;2023-11-22T04:47:44;0.20;99.90
4962;DHT22;2496;52.468;13.342;2023-11-22T04:50:11;0.30;99.90
4962;DHT22;2496;52.468;13.342;2023-11-22T04:52:40;0.30;99.90
4962;DHT22;2496;52.468;13.342;2023-11-22T04:55:08;0.40;99.90
4962;DHT22;2496;52.468;13.342;2023-11-22T04:57:35;0.40;99.90
4962;DHT22;2496;52.468;13.342;2023-11-22T05:00:03;0.30;99.90
4962;DHT22;2496;52.468;13.342;2023-11-22T05:02:32;0.30;99.90
4962;DHT22;2496;52.468;13.342;2023-11-22T05:04:59;0.40;99.90
4962;DHT22;2496;52.468;13.342;2023-11-22T05:07:27;0.40;99.90
4962;DHT22;2496;52.468;13.342;2023-11-22T05:09:56;0.40;99.90
4962;DHT22;2496;52.468;13.342;2023-11-22T05:12:23;0.40;99.90
4962;DHT22;2496;52.468;13.342;2023-11-22T05:14:50;0.40;99.90
4962;DHT22;2496;52.468;13.342;2023-11-22T05:17:18;0.40;99.90
4962;DHT22;2496;52.468;13.342;2023-11-22T05:19:46;0.30;99.90
4962;DHT22;2496;52.468;13.342;2023-11-22T05:22:13;0.30;99.90
4962;DHT22;2496;52.468;13.342;2023-11-22T05:24:46;0.30;99.90
4962;DHT22;2496;52.468;13.342;2023-11-22T05:27:15;0.20;99.90
4962;DHT22;2496;52.468;13.342;2023-11-22T05:29:42;0.30;99.90
4962;DHT22;2496;52.468;13.342;2023-11-22T05:32:09;0.20;99.90
4962;DHT22;2496;52.468;13.342;2023-11-22T05:34:37;0.10;99.90
4962;DHT22;2496;52.468;13.342;2023-11-22T05:37:11;0.10;99.90
4962;DHT22;2496;52.468;13.342;2023-11-22T05:39:38;-0.10;99.90
4962;DHT22;2496;52.468;13.342;2023-11-22T05:42:05;-0.10;99.90
4962;DHT22;2496;52.468;13.342;2023-11-22T05:44:34;0.00;99.90
4962;DHT22;2496;52.468;13.342;2023-11-22T05:47:01;-0.10;99.90
4962;DHT22;2496;52.468;13.342;2023-11-22T05:49:28;-0.10;99.90
4962;DHT22;2496;52.468;13.342;2023-11-22T05:51:56;-0.10;99.90
4962;DHT22;2496;52.468;13.342;2023-11-22T05:54:26;0.10;99.90
4962;DHT22;2496;52.468;13.342;2023-11-22T05:56:53;0.10;99.90
4962;DHT22;2496;52.468;13.342;2023-11-22T05:59:20;0.10;99.90
4962;DHT22;2496;52.468;13.342;2023-11-22T06:01:49;0.00;99.90
4962;DHT22;2496;52.468;13.342;2023-11-22T06:04:16;0.00;99.90
4962;DHT22;2496;52.468;13.342;2023-11-22T06:06:43;-0.10;99.90
4962;DHT22;2496;52.468;13.342;2023-11-22T06:09:12;-0.10;99.90
4962;DHT22;2496;52.468;13.342;2023-11-22T06:11:42;-0.10;99.90
4962;DHT22;2496;52.468;13.342;2023-11-22T06:14:10;-0.10;99.90
4962;DHT22;2496;52.468;13.342;2023-11-22T06:16:39;-0.10;99.90
4962;DHT22;2496;52.468;13.342;2023-11-22T06:19:08;-0.10;99.90
4962;DHT22;2496;52.468;13.342;2023-11-22T06:21:35;-0.20;99.90
4962;DHT22;2496;52.468;13.342;2023-11-22T06:24:05;-0.20;99.90
4962;DHT22;2496;52.468;13.342;2023-11-22T06:26:34;-0.20;99.90
4962;DHT22;2496;52.468;13.342;2023-11-22T06:29:02;-0.20;99.90
4962;DHT22;2496;52.468;13.342;2023-11-22T06:31:32;-0.30;99.90
4962;DHT22;2496;52.468;13.342;2023-11-22T06:34:00;-0.30;99.90
4962;DHT22;2496;52.468;13.342;2023-11-22T06:36:29;-0.30;99.90
4962;DHT22;2496;52.468;13.342;2023-11-22T06:38:56;-0.30;99.90
4962;DHT22;2496;52.468;13.342;2023-11-22T06:41:25;-0.10;99.90
4962;DHT22;2496;52.468;13.342;2023-11-22T06:43:52;-0.20;99.90
4962;DHT22;2496;52.468;13.342;2023-11-22T06:46:19;-0.20;99.90
4962;DHT22;2496;52.468;13.342;2023-11-22T06:48:48;-0.10;99.90
4962;DHT22;2496;52.468;13.342;2023-11-22T06:51:16;-0.10;99.90
4962;DHT22;2496;52.468;13.342;2023-11-22T06:53:45;-0.20;99.90
4962;DHT22;2496;52.468;13.342;2023-11-22T06:56:12;-0.10;99.90
4962;DHT22;2496;52.468;13.342;2023-11-22T06:58:40;-0.10;99.90
4962;DHT22;2496;52.468;13.342;2023-11-22T07:01:07;-0.20;99.90
4962;DHT22;2496;52.468;13.342;2023-11-22T07:03:36;-0.20;99.90
4962;DHT22;2496;52.468;13.342;2023-11-22T07:06:04;-0.20;99.90
4962;DHT22;2496;52.468;13.342;2023-11-22T07:08:32;-0.30;99.90
4962;DHT22;2496;52.468;13.342;2023-11-22T07:11:01;-0.30;99.90
4962;DHT22;2496;52.468;13.342;2023-11-22T07:13:35;-0.20;99.90
4962;DHT22;2496;52.468;13.342;2023-11-22T07:16:05;-0.10;99.90
4962;DHT22;2496;52.468;13.342;2023-11-22T07:18:34;-0.20;99.90
4962;DHT22;2496;52.468;13.342;2023-11-22T07:21:03;-0.20;99.90
4962;DHT22;2496;52.468;13.342;2023-11-22T07:23:31;0.00;99.90
4962;DHT22;2496;52.468;13.342;2023-11-22T07:25:58;0.00;99.90
4962;DHT22;2496;52.468;13.342;2023-11-22T07:28:27;0.10;99.90
4962;DHT22;2496;52.468;13.342;2023-11-22T07:30:54;0.10;99.90
4962;DHT22;2496;52.468;13.342;2023-11-22T07:33:29;0.10;99.90
4962;DHT22;2496;52.468;13.342;2023-11-22T07:36:02;0.10;99.90
4962;DHT22;2496;52.468;13.342;2023-11-22T07:38:29;0.10;99.90
4962;DHT22;2496;52.468;13.342;2023-11-22T07:41:00;0.10;99.90
4962;DHT22;2496;52.468;13.342;2023-11-22T07:43:28;0.20;99.90
4962;DHT22;2496;52.468;13.342;2023-11-22T07:45:59;0.30;99.90
4962;DHT22;2496;52.468;13.342;2023-11-22T07:48:27;0.30;99.90
4962;DHT22;2496;52.468;13.342;2023-11-22T07:50:54;0.30;99.90
4962;DHT22;2496;52.468;13.342;2023-11-22T07:53:22;0.20;99.90
4962;DHT22;2496;52.468;13.342;2023-11-22T07:55:55;0.30;99.90
4962;DHT22;2496;52.468;13.342;2023-11-22T07:58:24;0.30;99.90
4962;DHT22;2496;52.468;13.342;2023-11-22T08:00:58;0.20;99.90
4962;DHT22;2496;52.468;13.342;2023-11-22T08:03:32;0.20;99.90
4962;DHT22;2496;52.468;13.342;2023-11-22T08:06:00;0.30;99.90
4962;DHT22;2496;52.468;13.342;2023-11-22T08:08:28;0.40;99.90
4962;DHT22;2496;52.468;13.342;2023-11-22T08:10:58;0.60;99.90
4962;DHT22;2496;52.468;13.342;2023-11-22T08:13:27;0.80;99.90
4962;DHT22;2496;52.468;13.342;2023-11-22T08:15:57;0.90;99.90
4962;DHT22;2496;52.468;13.342;2023-11-22T08:18:24;1.10;99.90
4962;DHT22;2496;52.468;13.342;2023-11-22T08:20:56;1.30;99.90
4962;DHT22;2496;52.468;13.342;2023-11-22T08:23:24;1.50;99.90
4962;DHT22;2496;52.468;13.342;2023-11-22T08:25:55;1.50;99.90
4962;DHT22;2496;52.468;13.342;2023-11-22T08:28:22;1.60;99.90
4962;DHT22;2496;52.468;13.342;2023-11-22T08:30:51;1.60;99.90
4962;DHT22;2496;52.468;13.342;2023-11-22T08:33:20;1.70;99.90
4962;DHT22;2496;52.468;13.342;2023-11-22T08:35:49;1.80;99.90
4962;DHT22;2496;52.468;13.342;2023-11-22T08:38:24;1.70;99.90
4962;DHT22;2496;52.468;13.342;2023-11-22T08:40:52;1.50;99.90
4962;DHT22;2496;52.468;13.342;2023-11-22T08:43:21;1.40;99.90
4962;DHT22;2496;52.468;13.342;2023-11-22T08:45:51;1.20;99.90
4962;DHT22;2496;52.468;13.342;2023-11-22T08:48:20;1.10;99.90
4962;DHT22;2496;52.468;13.342;2023-11-22T08:50:51;0.90;99.90
4962;DHT22;2496;52.468;13.342;2023-11-22T08:53:19;0.90;99.90
4962;DHT22;2496;52.468;13.342;2023-11-22T08:55:49;0.90;99.90
4962;DHT22;2496;52.468;13.342;2023-11-22T08:58:18;1.10;99.90
4962;DHT22;2496;52.468;13.342;2023-11-22T09:00:49;1.20;99.90
4962;DHT22;2496;52.468;13.342;2023-11-22T09:03:21;1.10;99.90
4962;DHT22;2496;52.468;13.342;2023-11-22T09:05:48;1.20;99.90
4962;DHT22;2496;52.468;13.342;2023-11-22T09:08:19;1.20;99.90
4962;DHT22;2496;52.468;13.342;2023-11-22T09:10:47;1.30;99.90
4962;DHT22;2496;52.468;13.342;2023-11-22T09:13:14;1.40;99.90
4962;DHT22;2496;52.468;13.342;2023-11-22T09:15:42;1.30;99.90
4962;DHT22;2496;52.468;13.342;2023-11-22T09:18:10;1.30;99.90
4962;DHT22;2496;52.468;13.342;2023-11-22T09:20:51;1.30;99.90
4962;DHT22;2496;52.468;13.342;2023-11-22T09:23:22;1.30;99.90
4962;DHT22;2496;52.468;13.342;2023-11-22T09:25:55;1.30;99.90
4962;DHT22;2496;52.468;13.342;2023-11-22T09:28:22;1.30;99.90
4962;DHT22;2496;52.468;13.342;2023-11-22T09:30:53;1.30;99.90
4962;DHT22;2496;52.468;13.342;2023-11-22T09:33:29;1.40;99.90
4962;DHT22;2496;52.468;13.342;2023-11-22T09:35:58;1.40;99.90
4962;DHT22;2496;52.468;13.342;2023-11-22T09:38:43;1.40;99.90
4962;DHT22;2496;52.468;13.342;2023-11-22T09:41:13;1.50;99.90
4962;DHT22;2496;52.468;13.342;2023-11-22T09:43:42;1.50;99.90
4962;DHT22;2496;52.468;13.342;2023-11-22T09:46:15;1.50;99.90
4962;DHT22;2496;52.468;13.342;2023-11-22T09:48:47;1.50;99.90
4962;DHT22;2496;52.468;13.342;2023-11-22T09:51:23;1.60;99.90
4962;DHT22;2496;52.468;13.342;2023-11-22T09:53:53;1.60;99.90
4962;DHT22;2496;52.468;13.342;2023-11-22T09:56:23;1.60;99.90
4962;DHT22;2496;52.468;13.342;2023-11-22T09:58:52;1.50;99.90
4962;DHT22;2496;52.468;13.342;2023-11-22T10:01:22;1.50;99.90
4962;DHT22;2496;52.468;13.342;2023-11-22T10:03:49;1.70;99.90
4962;DHT22;2496;52.468;13.342;2023-11-22T10:06:18;1.60;99.90
4962;DHT22;2496;52.468;13.342;2023-11-22T10:08:46;1.70;99.90
4962;DHT22;2496;52.468;13.342;2023-11-22T10:11:18;1.70;99.90
4962;DHT22;2496;52.468;13.342;2023-11-22T10:13:48;1.70;99.90
4962;DHT22;2496;52.468;13.342;2023-11-22T10:16:17;1.80;99.90
4962;DHT22;2496;52.468;13.342;2023-11-22T10:18:47;1.90;99.90
4962;DHT22;2496;52.468;13.342;2023-11-22T10:21:21;1.90;99.90
4962;DHT22;2496;52.468;13.342;2023-11-22T10:23:49;2.00;99.90
4962;DHT22;2496;52.468;13.342;2023-11-22T10:26:18;2.00;99.90
4962;DHT22;2496;52.468;13.342;2023-11-22T10:28:46;2.10;99.90
4962;DHT22;2496;52.468;13.342;2023-11-22T10:31:13;2.00;99.90
4962;DHT22;2496;52.468;13.342;2023-11-22T10:33:42;2.10;99.90
4962;DHT22;2496;52.468;13.342;2023-11-22T10:36:09;2.10;99.90
4962;DHT22;2496;52.468;13.342;2023-11-22T10:38:39;2.20;99.90
4962;DHT22;2496;52.468;13.342;2023-11-22T10:41:07;2.20;99.90
4962;DHT22;2496;52.468;13.342;2023-11-22T10:43:36;2.10;99.90
4962;DHT22;2496;52.468;13.342;2023-11-22T10:46:04;2.10;99.90
4962;DHT22;2496;52.468;13.342;2023-11-22T10:48:32;2.10;99.90
4962;DHT22;2496;52.468;13.342;2023-11-22T10:51:01;2.10;99.90
4962;DHT22;2496;52.468;13.342;2023-11-22T10:53:32;2.20;99.90
4962;DHT22;2496;52.468;13.342;2023-11-22T10:56:05;2.30;99.90
4962;DHT22;2496;52.468;13.342;2023-11-22T10:58:39;2.40;99.90
4962;DHT22;2496;52.468;13.342;2023-11-22T11:01:09;2.40;99.90
4962;DHT22;2496;52.468;13.342;2023-11-22T11:03:37;2.40;99.90
4962;DHT22;2496;52.468;13.342;2023-11-22T11:06:08;2.40;99.90
4962;DHT22;2496;52.468;13.342;2023-11-22T11:08:39;2.50;99.90
4962;DHT22;2496;52.468;13.342;2023-11-22T11:11:08;2.50;99.90
4962;DHT22;2496;52.468;13.342;2023-11-22T11:13:35;2.50;99.90
4962;DHT22;2496;52.468;13.342;2023-11-22T11:16:02;2.50;99.90
4962;DHT22;2496;52.468;13.342;2023-11-22T11:18:31;2.60;99.90
4962;DHT22;2496;52.468;13.342;2023-11-22T11:20:59;2.50;99.90
4962;DHT22;2496;52.468;13.342;2023-11-22T11:23:29;2.60;99.90
4962;DHT22;2496;52.468;13.342;2023-11-22T11:25:58;2.60;99.90
4962;DHT22;2496;52.468;13.342;2023-11-22T11:28:43;2.60;99.90
4962;DHT22;2496;52.468;13.342;2023-11-22T11:31:10;2.70;99.90
4962;DHT22;2496;52.468;13.342;2023-11-22T11:33:53;2.80;99.90
4962;DHT22;2496;52.468;13.342;2023-11-22T11:36:22;2.80;99.90
4962;DHT22;2496;52.468;13.342;2023-11-22T11:38:51;2.80;99.80
4962;DHT22;2496;52.468;13.342;2023-11-22T11:41:18;2.80;99.60
4962;DHT22;2496;52.468;13.342;2023-11-22T11:43:48;2.80;99.70
4962;DHT22;2496;52.468;13.342;2023-11-22T11:46:16;2.70;99.50
4962;DHT22;2496;52.468;13.342;2023-11-22T11:48:44;2.80;99.80
4962;DHT22;2496;52.468;13.342;2023-11-22T11:51:14;2.80;99.60
4962;DHT22;2496;52.468;13.342;2023-11-22T11:53:41;2.90;99.40
4962;DHT22;2496;52.468;13.342;2023-11-22T11:56:09;2.80;99.30
4962;DHT22;2496;52.468;13.342;2023-11-22T11:58:37;2.90;99.40
4962;DHT22;2496;52.468;13.342;2023-11-22T12:01:06;2.90;99.40
4962;DHT22;2496;52.468;13.342;2023-11-22T12:03:33;2.90;99.20
4962;DHT22;2496;52.468;13.342;2023-11-22T12:06:02;2.90;98.80
4962;DHT22;2496;52.468;13.342;2023-11-22T12:08:29;2.90;99.00
4962;DHT22;2496;52.468;13.342;2023-11-22T12:11:02;2.90;99.20
4962;DHT22;2496;52.468;13.342;2023-11-22T12:13:30;2.90;99.30
4962;DHT22;2496;52.468;13.342;2023-11-22T12:15:59;2.90;99.30
4962;DHT22;2496;52.468;13.342;2023-11-22T12:18:29;2.90;99.30
4962;DHT22;2496;52.468;13.342;2023-11-22T12:20:59;2.90;99.80
4962;DHT22;2496;52.468;13.342;2023-11-22T12:23:27;2.90;99.70
4962;DHT22;2496;52.468;13.342;2023-11-22T12:25:55;2.90;99.70
4962;DHT22;2496;52.468;13.342;2023-11-22T12:28:24;2.90;99.20
4962;DHT22;2496;52.468;13.342;2023-11-22T12:30:51;3.00;99.20
4962;DHT22;2496;52.468;13.342;2023-11-22T12:33:18;3.00;99.10
4962;DHT22;2496;52.468;13.342;2023-11-22T12:35:48;3.00;99.10
4962;DHT22;2496;52.468;13.342;2023-11-22T12:38:15;3.00;99.20
4962;DHT22;2496;52.468;13.342;2023-11-22T12:40:48;2.90;99.30
4962;DHT22;2496;52.468;13.342;2023-11-22T12:43:15;2.90;99.40
4962;DHT22;2496;52.468;13.342;2023-11-22T12:45:43;2.90;99.30
4962;DHT22;2496;52.468;13.342;2023-11-22T12:48:21;2.90;99.10
4962;DHT22;2496;52.468;13.342;2023-11-22T12:50:51;2.90;98.90
4962;DHT22;2496;52.468;13.342;2023-11-22T12:53:19;2.90;99.10
4962;DHT22;2496;52.468;13.342;2023-11-22T12:55:49;2.90;98.90
4962;DHT22;2496;52.468;13.342;2023-11-22T12:58:17;2.90;99.00
4962;DHT22;2496;52.468;13.342;2023-11-22T13:00:45;2.90;99.10
4962;DHT22;2496;52.468;13.342;2023-11-22T13:03:12;2.90;99.10
4962;DHT22;2496;52.468;13.342;2023-11-22T13:05:41;2.90;99.30
4962;DHT22;2496;52.468;13.342;2023-11-22T13:08:11;2.90;99.50
4962;DHT22;2496;52.468;13.342;2023-11-22T13:10:39;2.90;99.50
4962;DHT22;2496;52.468;13.342;2023-11-22T13:13:06;2.90;99.70
4962;DHT22;2496;52.468;13.342;2023-11-22T13:15:36;2.90;99.70
4962;DHT22;2496;52.468;13.342;2023-11-22T13:18:06;2.80;99.90
4962;DHT22;2496;52.468;13.342;2023-11-22T13:20:34;2.80;99.90
4962;DHT22;2496;52.468;13.342;2023-11-22T13:23:04;2.80;99.90
4962;DHT22;2496;52.468;13.342;2023-11-22T13:25:32;2.70;99.80
4962;DHT22;2496;52.468;13.342;2023-11-22T13:27:59;2.70;99.70
4962;DHT22;2496;52.468;13.342;2023-11-22T13:30:30;2.70;99.90
4962;DHT22;2496;52.468;13.342;2023-11-22T13:32:57;2.70;99.80
4962;DHT22;2496;52.468;13.342;2023-11-22T13:35:27;2.70;99.30
4962;DHT22;2496;52.468;13.342;2023-11-22T13:37:57;2.60;99.10
4962;DHT22;2496;52.468;13.342;2023-11-22T13:40:25;2.60;99.40
4962;DHT22;2496;52.468;13.342;2023-11-22T13:42:57;2.60;99.60
4962;DHT22;2496;52.468;13.342;2023-11-22T13:45:25;2.60;99.70
4962;DHT22;2496;52.468;13.342;2023-11-22T13:47:53;2.60;99.90
4962;DHT22;2496;52.468;13.342;2023-11-22T13:50:23;2.60;99.90
4962;DHT22;2496;52.468;13.342;2023-11-22T13:52:55;2.50;99.90
4962;DHT22;2496;52.468;13.342;2023-11-22T13:55:25;2.50;99.90
4962;DHT22;2496;52.468;13.342;2023-11-22T13:57:54;2.50;99.90
4962;DHT22;2496;52.468;13.342;2023-11-22T14:00:25;2.50;99.90
4962;DHT22;2496;52.468;13.342;2023-11-22T14:02:55;2.40;99.90
4962;DHT22;2496;52.468;13.342;2023-11-22T14:05:23;2.40;99.90
4962;DHT22;2496;52.468;13.342;2023-11-22T14:07:50;2.40;99.90
4962;DHT22;2496;52.468;13.342;2023-11-22T14:10:18;2.30;99.90
4962;DHT22;2496;52.468;13.342;2023-11-22T14:12:52;2.30;99.90
4962;DHT22;2496;52.468;13.342;2023-11-22T14:15:19;2.20;99.90
4962;DHT22;2496;52.468;13.342;2023-11-22T14:17:51;2.20;99.90
4962;DHT22;2496;52.468;13.342;2023-11-22T14:20:18;2.20;99.90
4962;DHT22;2496;52.468;13.342;2023-11-22T14:22:46;2.20;99.90
4962;DHT22;2496;52.468;13.342;2023-11-22T14:25:14;2.20;99.90
4962;DHT22;2496;52.468;13.342;2023-11-22T14:27:42;2.20;99.90
4962;DHT22;2496;52.468;13.342;2023-11-22T14:30:10;2.20;99.90
4962;DHT22;2496;52.468;13.342;2023-11-22T14:32:40;2.20;99.90
4962;DHT22;2496;52.468;13.342;2023-11-22T14:35:11;2.20;99.90
4962;DHT22;2496;52.468;13.342;2023-11-22T14:37:38;2.20;99.90
4962;DHT22;2496;52.468;13.342;2023-11-22T14:40:07;2.20;99.90
4962;DHT22;2496;52.468;13.342;2023-11-22T14:42:40;2.10;99.90
4962;DHT22;2496;52.468;13.342;2023-11-22T14:45:08;2.10;99.90
4962;DHT22;2496;52.468;13.342;2023-11-22T14:47:37;2.10;99.90
4962;DHT22;2496;52.468;13.342;2023-11-22T14:50:06;2.10;99.90
4962;DHT22;2496;52.468;13.342;2023-11-22T14:52:37;2.00;99.90
4962;DHT22;2496;52.468;13.342;2023-11-22T14:55:04;2.00;99.90
4962;DHT22;2496;52.468;13.342;2023-11-22T14:57:32;1.90;99.90
4962;DHT22;2496;52.468;13.342;2023-11-22T14:59:59;1.90;99.90
4962;DHT22;2496;52.468;13.342;2023-11-22T15:02:26;1.90;99.90
4962;DHT22;2496;52.468;13.342;2023-11-22T15:04:54;1.90;99.90
4962;DHT22;2496;52.468;13.342;2023-11-22T15:07:21;1.80;99.90
4962;DHT22;2496;52.468;13.342;2023-11-22T15:09:50;1.80;99.90
4962;DHT22;2496;52.468;13.342;2023-11-22T15:12:17;1.80;99.90
4962;DHT22;2496;52.468;13.342;2023-11-22T15:14:44;1.80;99.90
4962;DHT22;2496;52.468;13.342;2023-11-22T15:17:13;1.80;99.90
4962;DHT22;2496;52.468;13.342;2023-11-22T15:19:40;1.80;99.90
4962;DHT22;2496;52.468;13.342;2023-11-22T15:22:09;1.80;99.90
4962;DHT22;2496;52.468;13.342;2023-11-22T15:24:36;1.80;99.90
4962;DHT22;2496;52.468;13.342;2023-11-22T15:27:05;1.80;99.90
4962;DHT22;2496;52.468;13.342;2023-11-22T15:29:32;1.80;99.90
4962;DHT22;2496;52.468;13.342;2023-11-22T15:31:59;1.80;99.90
4962;DHT22;2496;52.468;13.342;2023-11-22T15:34:26;1.80;99.90
4962;DHT22;2496;52.468;13.342;2023-11-22T15:36:53;1.80;99.90
4962;DHT22;2496;52.468;13.342;2023-11-22T15:39:20;1.80;99.90
4962;DHT22;2496;52.468;13.342;2023-11-22T15:41:48;1.80;99.90
4962;DHT22;2496;52.468;13.342;2023-11-22T15:44:16;1.80;99.90
4962;DHT22;2496;52.468;13.342;2023-11-22T15:46:43;1.80;99.90
4962;DHT22;2496;52.468;13.342;2023-11-22T15:49:10;1.90;99.90
4962;DHT22;2496;52.468;13.342;2023-11-22T15:51:37;1.90;99.90
4962;DHT22;2496;52.468;13.342;2023-11-22T15:54:04;1.90;99.90
4962;DHT22;2496;52.468;13.342;2023-11-22T15:56:31;1.90;99.90
4962;DHT22;2496;52.468;13.342;2023-11-22T15:58:58;1.80;99.90
4962;DHT22;2496;52.468;13.342;2023-11-22T16:01:28;1.80;99.90
4962;DHT22;2496;52.468;13.342;2023-11-22T16:03:55;1.80;99.90
4962;DHT22;2496;52.468;13.342;2023-11-22T16:06:22;1.80;99.90
4962;DHT22;2496;52.468;13.342;2023-11-22T16:08:49;1.80;99.90